sensor_id;sensor_type;location;lat;lon;timestamp;P1;durP1;ratioP1;P2;durP2;ratioP2
75814;SDS011;70031;45.570;14.228;2023-09-30T00:00:08;86.75;;;12.73;;
75814;SDS011;70031;45.570;14.228;2023-09-30T00:02:09;48.63;;;12.18;;
75814;SDS011;70031;45.570;14.228;2023-09-30T00:04:11;19.95;;;11.13;;
75814;SDS011;70031;45.570;14.228;2023-09-30T00:06:11;18.75;;;13.18;;
75814;SDS011;70031;45.570;14.228;2023-09-30T00:08:11;23.25;;;14.27;;
75814;SDS011;70031;45.570;14.228;2023-09-30T00:10:12;20.48;;;13.55;;
75814;SDS011;70031;45.570;14.228;2023-09-30T00:12:12;20.92;;;13.70;;
75814;SDS011;70031;45.570;14.228;2023-09-30T00:14:13;19.65;;;12.55;;
75814;SDS011;70031;45.570;14.228;2023-09-30T00:16:17;19.83;;;12.23;;
75814;SDS011;70031;45.570;14.228;2023-09-30T00:18:18;16.25;;;11.43;;
75814;SDS011;70031;45.570;14.228;2023-09-30T00:20:18;16.50;;;10.50;;
75814;SDS011;70031;45.570;14.228;2023-09-30T00:22:19;15.10;;;10.15;;
75814;SDS011;70031;45.570;14.228;2023-09-30T00:24:19;17.23;;;10.98;;
75814;SDS011;70031;45.570;14.228;2023-09-30T00:26:19;14.73;;;10.35;;
75814;SDS011;70031;45.570;14.228;2023-09-30T00:28:22;19.85;;;10.98;;
75814;SDS011;70031;45.570;14.228;2023-09-30T00:30:22;26.17;;;11.20;;
75814;SDS011;70031;45.570;14.228;2023-09-30T00:32:22;61.22;;;11.32;;
75814;SDS011;70031;45.570;14.228;2023-09-30T00:34:23;33.97;;;11.57;;
75814;SDS011;70031;45.570;14.228;2023-09-30T00:36:23;94.78;;;12.27;;
75814;SDS011;70031;45.570;14.228;2023-09-30T00:38:24;172.18;;;14.32;;
75814;SDS011;70031;45.570;14.228;2023-09-30T00:40:24;144.98;;;13.48;;
75814;SDS011;70031;45.570;14.228;2023-09-30T00:42:25;88.88;;;13.48;;
75814;SDS011;70031;45.570;14.228;2023-09-30T00:44:26;131.98;;;15.18;;
75814;SDS011;70031;45.570;14.228;2023-09-30T00:46:28;77.72;;;13.05;;
75814;SDS011;70031;45.570;14.228;2023-09-30T00:48:30;137.07;;;14.02;;
75814;SDS011;70031;45.570;14.228;2023-09-30T00:50:30;61.10;;;13.43;;
75814;SDS011;70031;45.570;14.228;2023-09-30T00:52:31;102.78;;;17.65;;
75814;SDS011;70031;45.570;14.228;2023-09-30T00:54:33;51.65;;;14.00;;
75814;SDS011;70031;45.570;14.228;2023-09-30T00:56:35;49.47;;;13.57;;
75814;SDS011;70031;45.570;14.228;2023-09-30T00:58:43;75.63;;;13.10;;
75814;SDS011;70031;45.570;14.228;2023-09-30T01:00:46;29.00;;;12.40;;
75814;SDS011;70031;45.570;14.228;2023-09-30T01:02:47;17.80;;;11.32;;
75814;SDS011;70031;45.570;14.228;2023-09-30T01:04:48;31.25;;;11.85;;
75814;SDS011;70031;45.570;14.228;2023-09-30T01:06:49;66.43;;;12.65;;
75814;SDS011;70031;45.570;14.228;2023-09-30T01:08:49;25.17;;;11.50;;
75814;SDS011;70031;45.570;14.228;2023-09-30T01:10:49;18.60;;;10.07;;
75814;SDS011;70031;45.570;14.228;2023-09-30T01:12:50;21.70;;;10.95;;
75814;SDS011;70031;45.570;14.228;2023-09-30T01:14:56;35.72;;;10.82;;
75814;SDS011;70031;45.570;14.228;2023-09-30T01:16:57;24.00;;;10.98;;
75814;SDS011;70031;45.570;14.228;2023-09-30T01:18:58;66.05;;;11.65;;
75814;SDS011;70031;45.570;14.228;2023-09-30T01:21:00;227.88;;;15.45;;
75814;SDS011;70031;45.570;14.228;2023-09-30T01:23:03;88.90;;;12.35;;
75814;SDS011;70031;45.570;14.228;2023-09-30T01:25:04;30.88;;;10.30;;
75814;SDS011;70031;45.570;14.228;2023-09-30T01:27:04;36.70;;;10.35;;
75814;SDS011;70031;45.570;14.228;2023-09-30T01:29:05;31.15;;;10.77;;
75814;SDS011;70031;45.570;14.228;2023-09-30T01:31:05;42.78;;;10.82;;
75814;SDS011;70031;45.570;14.228;2023-09-30T01:33:06;19.42;;;9.82;;
75814;SDS011;70031;45.570;14.228;2023-09-30T01:35:07;52.53;;;10.52;;
75814;SDS011;70031;45.570;14.228;2023-09-30T01:37:08;52.22;;;10.55;;
75814;SDS011;70031;45.570;14.228;2023-09-30T01:39:12;62.08;;;11.32;;
75814;SDS011;70031;45.570;14.228;2023-09-30T01:41:13;43.92;;;12.13;;
75814;SDS011;70031;45.570;14.228;2023-09-30T01:43:14;57.47;;;12.65;;
75814;SDS011;70031;45.570;14.228;2023-09-30T01:45:15;71.20;;;13.55;;
75814;SDS011;70031;45.570;14.228;2023-09-30T01:47:15;49.67;;;11.95;;
75814;SDS011;70031;45.570;14.228;2023-09-30T01:49:15;57.72;;;13.63;;
75814;SDS011;70031;45.570;14.228;2023-09-30T01:51:18;29.52;;;12.90;;
75814;SDS011;70031;45.570;14.228;2023-09-30T01:53:18;44.22;;;12.40;;
75814;SDS011;70031;45.570;14.228;2023-09-30T01:55:18;49.50;;;12.10;;
75814;SDS011;70031;45.570;14.228;2023-09-30T01:57:19;50.67;;;12.35;;
75814;SDS011;70031;45.570;14.228;2023-09-30T01:59:19;39.10;;;11.77;;
75814;SDS011;70031;45.570;14.228;2023-09-30T02:01:21;25.92;;;9.98;;
75814;SDS011;70031;45.570;14.228;2023-09-30T02:03:21;32.80;;;10.30;;
75814;SDS011;70031;45.570;14.228;2023-09-30T02:05:22;20.50;;;10.52;;
75814;SDS011;70031;45.570;14.228;2023-09-30T02:07:23;37.15;;;10.65;;
75814;SDS011;70031;45.570;14.228;2023-09-30T02:09:23;36.97;;;10.88;;
75814;SDS011;70031;45.570;14.228;2023-09-30T02:11:23;36.58;;;10.95;;
75814;SDS011;70031;45.570;14.228;2023-09-30T02:13:24;75.35;;;12.10;;
75814;SDS011;70031;45.570;14.228;2023-09-30T02:15:24;19.35;;;10.90;;
75814;SDS011;70031;45.570;14.228;2023-09-30T02:17:24;15.75;;;10.70;;
75814;SDS011;70031;45.570;14.228;2023-09-30T02:19:25;15.70;;;10.30;;
75814;SDS011;70031;45.570;14.228;2023-09-30T02:21:27;12.63;;;9.55;;
75814;SDS011;70031;45.570;14.228;2023-09-30T02:23:28;16.65;;;10.02;;
75814;SDS011;70031;45.570;14.228;2023-09-30T02:25:28;29.05;;;9.68;;
75814;SDS011;70031;45.570;14.228;2023-09-30T02:27:30;167.77;;;12.77;;
75814;SDS011;70031;45.570;14.228;2023-09-30T02:29:30;53.67;;;11.25;;
75814;SDS011;70031;45.570;14.228;2023-09-30T02:31:31;25.40;;;10.90;;
75814;SDS011;70031;45.570;14.228;2023-09-30T02:33:31;14.75;;;10.48;;
75814;SDS011;70031;45.570;14.228;2023-09-30T02:35:31;15.05;;;9.90;;
75814;SDS011;70031;45.570;14.228;2023-09-30T02:37:32;14.70;;;9.02;;
75814;SDS011;70031;45.570;14.228;2023-09-30T02:39:36;16.08;;;9.05;;
75814;SDS011;70031;45.570;14.228;2023-09-30T02:41:37;16.13;;;8.35;;
75814;SDS011;70031;45.570;14.228;2023-09-30T02:43:37;25.48;;;8.77;;
75814;SDS011;70031;45.570;14.228;2023-09-30T02:45:38;43.10;;;10.35;;
75814;SDS011;70031;45.570;14.228;2023-09-30T02:47:39;48.50;;;9.68;;
75814;SDS011;70031;45.570;14.228;2023-09-30T02:49:39;43.38;;;10.07;;
75814;SDS011;70031;45.570;14.228;2023-09-30T02:51:39;14.13;;;9.95;;
75814;SDS011;70031;45.570;14.228;2023-09-30T02:53:40;16.23;;;8.93;;
75814;SDS011;70031;45.570;14.228;2023-09-30T02:55:40;60.95;;;11.85;;
75814;SDS011;70031;45.570;14.228;2023-09-30T02:57:41;33.67;;;10.52;;
75814;SDS011;70031;45.570;14.228;2023-09-30T02:59:43;40.88;;;10.75;;
75814;SDS011;70031;45.570;14.228;2023-09-30T03:01:44;31.98;;;10.65;;
75814;SDS011;70031;45.570;14.228;2023-09-30T03:03:44;28.02;;;9.85;;
75814;SDS011;70031;45.570;14.228;2023-09-30T03:05:45;22.48;;;9.70;;
75814;SDS011;70031;45.570;14.228;2023-09-30T03:07:45;58.65;;;11.13;;
75814;SDS011;70031;45.570;14.228;2023-09-30T03:09:46;37.05;;;10.05;;
75814;SDS011;70031;45.570;14.228;2023-09-30T03:11:46;45.45;;;11.63;;
75814;SDS011;70031;45.570;14.228;2023-09-30T03:13:47;83.82;;;11.98;;
75814;SDS011;70031;45.570;14.228;2023-09-30T03:15:47;104.65;;;14.07;;
75814;SDS011;70031;45.570;14.228;2023-09-30T03:17:49;80.72;;;11.13;;
75814;SDS011;70031;45.570;14.228;2023-09-30T03:19:50;51.03;;;10.63;;
75814;SDS011;70031;45.570;14.228;2023-09-30T03:21:50;37.13;;;10.15;;
75814;SDS011;70031;45.570;14.228;2023-09-30T03:23:50;47.58;;;10.52;;
75814;SDS011;70031;45.570;14.228;2023-09-30T03:25:51;21.77;;;10.07;;
75814;SDS011;70031;45.570;14.228;2023-09-30T03:27:56;18.17;;;9.30;;
75814;SDS011;70031;45.570;14.228;2023-09-30T03:29:57;17.08;;;9.90;;
75814;SDS011;70031;45.570;14.228;2023-09-30T03:31:57;32.10;;;10.60;;
75814;SDS011;70031;45.570;14.228;2023-09-30T03:33:57;17.05;;;11.43;;
75814;SDS011;70031;45.570;14.228;2023-09-30T03:35:58;18.58;;;10.85;;
75814;SDS011;70031;45.570;14.228;2023-09-30T03:37:58;70.18;;;13.32;;
75814;SDS011;70031;45.570;14.228;2023-09-30T03:39:59;49.65;;;11.65;;
75814;SDS011;70031;45.570;14.228;2023-09-30T03:42:00;41.42;;;12.65;;
75814;SDS011;70031;45.570;14.228;2023-09-30T03:44:01;27.38;;;11.80;;
75814;SDS011;70031;45.570;14.228;2023-09-30T03:46:02;15.70;;;11.07;;
75814;SDS011;70031;45.570;14.228;2023-09-30T03:48:03;15.07;;;10.77;;
75814;SDS011;70031;45.570;14.228;2023-09-30T03:50:04;16.70;;;11.80;;
75814;SDS011;70031;45.570;14.228;2023-09-30T03:52:05;16.00;;;12.00;;
75814;SDS011;70031;45.570;14.228;2023-09-30T03:54:06;36.78;;;13.98;;
75814;SDS011;70031;45.570;14.228;2023-09-30T03:56:08;24.80;;;13.63;;
75814;SDS011;70031;45.570;14.228;2023-09-30T03:58:11;20.45;;;13.10;;
75814;SDS011;70031;45.570;14.228;2023-09-30T04:00:12;19.60;;;12.65;;
75814;SDS011;70031;45.570;14.228;2023-09-30T04:02:16;17.80;;;12.40;;
75814;SDS011;70031;45.570;14.228;2023-09-30T04:04:16;17.48;;;12.57;;
75814;SDS011;70031;45.570;14.228;2023-09-30T04:06:17;17.60;;;11.80;;
75814;SDS011;70031;45.570;14.228;2023-09-30T04:08:17;18.42;;;11.00;;
75814;SDS011;70031;45.570;14.228;2023-09-30T04:10:17;13.98;;;10.50;;
75814;SDS011;70031;45.570;14.228;2023-09-30T04:12:18;18.13;;;11.40;;
75814;SDS011;70031;45.570;14.228;2023-09-30T04:14:18;15.57;;;11.02;;
75814;SDS011;70031;45.570;14.228;2023-09-30T04:16:18;15.18;;;11.13;;
75814;SDS011;70031;45.570;14.228;2023-09-30T04:18:19;15.20;;;10.98;;
75814;SDS011;70031;45.570;14.228;2023-09-30T04:20:21;15.93;;;10.93;;
75814;SDS011;70031;45.570;14.228;2023-09-30T04:22:23;16.50;;;10.93;;
75814;SDS011;70031;45.570;14.228;2023-09-30T04:24:25;23.38;;;14.98;;
75814;SDS011;70031;45.570;14.228;2023-09-30T04:26:25;35.75;;;18.48;;
75814;SDS011;70031;45.570;14.228;2023-09-30T04:28:26;37.72;;;19.92;;
75814;SDS011;70031;45.570;14.228;2023-09-30T04:30:26;24.08;;;15.32;;
75814;SDS011;70031;45.570;14.228;2023-09-30T04:32:27;26.10;;;16.48;;
75814;SDS011;70031;45.570;14.228;2023-09-30T04:34:27;21.52;;;14.93;;
75814;SDS011;70031;45.570;14.228;2023-09-30T04:36:28;19.10;;;13.68;;
75814;SDS011;70031;45.570;14.228;2023-09-30T04:38:28;20.10;;;14.02;;
75814;SDS011;70031;45.570;14.228;2023-09-30T04:40:31;16.50;;;12.55;;
75814;SDS011;70031;45.570;14.228;2023-09-30T04:42:36;20.27;;;12.02;;
75814;SDS011;70031;45.570;14.228;2023-09-30T04:44:37;18.70;;;12.25;;
75814;SDS011;70031;45.570;14.228;2023-09-30T04:46:38;21.15;;;13.48;;
75814;SDS011;70031;45.570;14.228;2023-09-30T04:48:45;16.55;;;12.15;;
75814;SDS011;70031;45.570;14.228;2023-09-30T04:50:48;20.35;;;12.38;;
75814;SDS011;70031;45.570;14.228;2023-09-30T04:52:48;22.02;;;13.00;;
75814;SDS011;70031;45.570;14.228;2023-09-30T04:54:49;20.00;;;12.30;;
75814;SDS011;70031;45.570;14.228;2023-09-30T04:56:49;20.23;;;12.85;;
75814;SDS011;70031;45.570;14.228;2023-09-30T04:58:51;16.75;;;11.40;;
75814;SDS011;70031;45.570;14.228;2023-09-30T05:00:51;15.43;;;11.05;;
75814;SDS011;70031;45.570;14.228;2023-09-30T05:02:51;16.25;;;10.77;;
75814;SDS011;70031;45.570;14.228;2023-09-30T05:04:52;19.60;;;10.80;;
75814;SDS011;70031;45.570;14.228;2023-09-30T05:06:53;15.38;;;10.13;;
75814;SDS011;70031;45.570;14.228;2023-09-30T05:08:53;14.57;;;10.02;;
75814;SDS011;70031;45.570;14.228;2023-09-30T05:10:55;15.17;;;10.40;;
75814;SDS011;70031;45.570;14.228;2023-09-30T05:12:56;15.25;;;11.07;;
75814;SDS011;70031;45.570;14.228;2023-09-30T05:14:57;15.38;;;11.20;;
75814;SDS011;70031;45.570;14.228;2023-09-30T05:16:57;16.47;;;10.70;;
75814;SDS011;70031;45.570;14.228;2023-09-30T05:18:57;15.35;;;10.23;;
75814;SDS011;70031;45.570;14.228;2023-09-30T05:20:58;14.43;;;9.80;;
75814;SDS011;70031;45.570;14.228;2023-09-30T05:22:58;17.52;;;10.10;;
75814;SDS011;70031;45.570;14.228;2023-09-30T05:24:58;16.23;;;10.60;;
75814;SDS011;70031;45.570;14.228;2023-09-30T05:26:59;22.27;;;12.02;;
75814;SDS011;70031;45.570;14.228;2023-09-30T05:28:59;16.75;;;10.57;;
75814;SDS011;70031;45.570;14.228;2023-09-30T05:30:59;15.25;;;10.65;;
75814;SDS011;70031;45.570;14.228;2023-09-30T05:33:01;21.80;;;11.93;;
75814;SDS011;70031;45.570;14.228;2023-09-30T05:35:03;18.00;;;10.48;;
75814;SDS011;70031;45.570;14.228;2023-09-30T05:37:05;16.00;;;10.32;;
75814;SDS011;70031;45.570;14.228;2023-09-30T05:39:05;17.63;;;11.25;;
75814;SDS011;70031;45.570;14.228;2023-09-30T05:41:05;17.40;;;10.68;;
75814;SDS011;70031;45.570;14.228;2023-09-30T05:43:06;15.38;;;11.57;;
75814;SDS011;70031;45.570;14.228;2023-09-30T05:45:07;14.65;;;11.60;;
75814;SDS011;70031;45.570;14.228;2023-09-30T05:47:09;14.50;;;11.00;;
75814;SDS011;70031;45.570;14.228;2023-09-30T05:49:10;18.50;;;12.00;;
75814;SDS011;70031;45.570;14.228;2023-09-30T05:51:13;18.15;;;10.93;;
75814;SDS011;70031;45.570;14.228;2023-09-30T05:53:15;15.18;;;11.43;;
75814;SDS011;70031;45.570;14.228;2023-09-30T05:55:15;14.13;;;10.98;;
75814;SDS011;70031;45.570;14.228;2023-09-30T05:57:16;16.48;;;10.73;;
75814;SDS011;70031;45.570;14.228;2023-09-30T05:59:16;13.80;;;10.45;;
75814;SDS011;70031;45.570;14.228;2023-09-30T06:01:16;14.48;;;11.02;;
75814;SDS011;70031;45.570;14.228;2023-09-30T06:03:18;16.85;;;11.30;;
75814;SDS011;70031;45.570;14.228;2023-09-30T06:07:26;15.43;;;10.50;;
75814;SDS011;70031;45.570;14.228;2023-09-30T06:09:27;16.38;;;11.73;;
75814;SDS011;70031;45.570;14.228;2023-09-30T06:11:30;16.70;;;11.90;;
75814;SDS011;70031;45.570;14.228;2023-09-30T06:13:32;18.40;;;12.82;;
75814;SDS011;70031;45.570;14.228;2023-09-30T06:15:33;21.98;;;13.35;;
75814;SDS011;70031;45.570;14.228;2023-09-30T06:17:33;18.85;;;13.35;;
75814;SDS011;70031;45.570;14.228;2023-09-30T06:19:33;18.77;;;13.52;;
75814;SDS011;70031;45.570;14.228;2023-09-30T06:21:34;23.17;;;15.13;;
75814;SDS011;70031;45.570;14.228;2023-09-30T06:23:34;23.48;;;14.60;;
75814;SDS011;70031;45.570;14.228;2023-09-30T06:25:35;24.80;;;17.90;;
75814;SDS011;70031;45.570;14.228;2023-09-30T06:27:35;26.90;;;18.40;;
75814;SDS011;70031;45.570;14.228;2023-09-30T06:29:37;25.50;;;18.00;;
75814;SDS011;70031;45.570;14.228;2023-09-30T06:31:38;25.25;;;17.75;;
75814;SDS011;70031;45.570;14.228;2023-09-30T06:33:38;23.60;;;19.00;;
75814;SDS011;70031;45.570;14.228;2023-09-30T06:35:40;24.42;;;17.77;;
75814;SDS011;70031;45.570;14.228;2023-09-30T06:37:50;37.75;;;18.75;;
75814;SDS011;70031;45.570;14.228;2023-09-30T06:39:50;24.33;;;18.23;;
75814;SDS011;70031;45.570;14.228;2023-09-30T06:41:50;22.38;;;18.05;;
75814;SDS011;70031;45.570;14.228;2023-09-30T06:43:51;26.67;;;17.35;;
75814;SDS011;70031;45.570;14.228;2023-09-30T06:45:52;20.25;;;15.55;;
75814;SDS011;70031;45.570;14.228;2023-09-30T06:47:52;19.35;;;15.50;;
75814;SDS011;70031;45.570;14.228;2023-09-30T06:49:54;19.55;;;15.50;;
75814;SDS011;70031;45.570;14.228;2023-09-30T06:51:54;20.27;;;16.15;;
75814;SDS011;70031;45.570;14.228;2023-09-30T06:53:55;19.95;;;15.07;;
75814;SDS011;70031;45.570;14.228;2023-09-30T06:55:55;13.43;;;10.95;;
75814;SDS011;70031;45.570;14.228;2023-09-30T06:57:55;11.93;;;9.45;;
75814;SDS011;70031;45.570;14.228;2023-09-30T06:59:56;32.78;;;18.75;;
75814;SDS011;70031;45.570;14.228;2023-09-30T07:01:56;16.98;;;10.90;;
75814;SDS011;70031;45.570;14.228;2023-09-30T07:03:57;14.23;;;10.13;;
75814;SDS011;70031;45.570;14.228;2023-09-30T07:05:57;14.20;;;10.05;;
75814;SDS011;70031;45.570;14.228;2023-09-30T07:08:00;12.48;;;7.40;;
75814;SDS011;70031;45.570;14.228;2023-09-30T07:10:00;13.32;;;7.10;;
75814;SDS011;70031;45.570;14.228;2023-09-30T07:12:01;11.10;;;7.22;;
75814;SDS011;70031;45.570;14.228;2023-09-30T07:14:01;10.25;;;6.88;;
75814;SDS011;70031;45.570;14.228;2023-09-30T07:16:01;10.75;;;6.68;;
75814;SDS011;70031;45.570;14.228;2023-09-30T07:18:02;9.90;;;7.43;;
75814;SDS011;70031;45.570;14.228;2023-09-30T07:20:03;12.13;;;7.25;;
75814;SDS011;70031;45.570;14.228;2023-09-30T07:22:05;12.60;;;7.50;;
75814;SDS011;70031;45.570;14.228;2023-09-30T07:24:05;11.55;;;7.43;;
75814;SDS011;70031;45.570;14.228;2023-09-30T07:26:06;12.18;;;7.07;;
75814;SDS011;70031;45.570;14.228;2023-09-30T07:28:06;10.77;;;7.00;;
75814;SDS011;70031;45.570;14.228;2023-09-30T07:30:12;8.95;;;7.03;;
75814;SDS011;70031;45.570;14.228;2023-09-30T07:32:14;13.70;;;7.03;;
75814;SDS011;70031;45.570;14.228;2023-09-30T07:34:15;11.07;;;7.22;;
75814;SDS011;70031;45.570;14.228;2023-09-30T07:36:15;14.32;;;7.80;;
75814;SDS011;70031;45.570;14.228;2023-09-30T07:38:15;11.35;;;6.50;;
75814;SDS011;70031;45.570;14.228;2023-09-30T07:40:16;11.10;;;8.10;;
75814;SDS011;70031;45.570;14.228;2023-09-30T07:42:16;15.80;;;10.68;;
75814;SDS011;70031;45.570;14.228;2023-09-30T07:44:17;17.63;;;13.45;;
75814;SDS011;70031;45.570;14.228;2023-09-30T07:46:17;18.63;;;12.52;;
75814;SDS011;70031;45.570;14.228;2023-09-30T07:48:18;15.55;;;11.15;;
75814;SDS011;70031;45.570;14.228;2023-09-30T07:50:18;18.17;;;11.82;;
75814;SDS011;70031;45.570;14.228;2023-09-30T07:52:19;23.40;;;13.40;;
75814;SDS011;70031;45.570;14.228;2023-09-30T07:54:19;23.52;;;16.00;;
75814;SDS011;70031;45.570;14.228;2023-09-30T07:56:19;26.13;;;14.50;;
75814;SDS011;70031;45.570;14.228;2023-09-30T07:58:20;20.55;;;13.82;;
75814;SDS011;70031;45.570;14.228;2023-09-30T08:00:20;23.05;;;12.68;;
75814;SDS011;70031;45.570;14.228;2023-09-30T08:02:21;17.85;;;13.95;;
75814;SDS011;70031;45.570;14.228;2023-09-30T08:04:22;18.58;;;14.63;;
75814;SDS011;70031;45.570;14.228;2023-09-30T08:06:23;22.95;;;14.30;;
75814;SDS011;70031;45.570;14.228;2023-09-30T08:08:23;21.52;;;14.15;;
75814;SDS011;70031;45.570;14.228;2023-09-30T08:10:24;16.10;;;11.10;;
75814;SDS011;70031;45.570;14.228;2023-09-30T08:12:24;18.23;;;12.40;;
75814;SDS011;70031;45.570;14.228;2023-09-30T08:14:24;21.02;;;13.82;;
75814;SDS011;70031;45.570;14.228;2023-09-30T08:16:25;15.02;;;11.27;;
75814;SDS011;70031;45.570;14.228;2023-09-30T08:18:26;15.23;;;11.25;;
75814;SDS011;70031;45.570;14.228;2023-09-30T08:20:26;18.20;;;10.50;;
75814;SDS011;70031;45.570;14.228;2023-09-30T08:22:26;16.83;;;12.32;;
75814;SDS011;70031;45.570;14.228;2023-09-30T08:24:31;21.77;;;11.18;;
75814;SDS011;70031;45.570;14.228;2023-09-30T08:26:31;16.60;;;12.25;;
75814;SDS011;70031;45.570;14.228;2023-09-30T08:28:32;12.95;;;10.57;;
75814;SDS011;70031;45.570;14.228;2023-09-30T08:30:33;14.38;;;10.05;;
75814;SDS011;70031;45.570;14.228;2023-09-30T08:32:36;13.30;;;9.57;;
75814;SDS011;70031;45.570;14.228;2023-09-30T08:34:36;16.05;;;10.75;;
75814;SDS011;70031;45.570;14.228;2023-09-30T08:36:36;13.18;;;9.80;;
75814;SDS011;70031;45.570;14.228;2023-09-30T08:38:38;16.73;;;9.88;;
75814;SDS011;70031;45.570;14.228;2023-09-30T08:40:40;13.43;;;9.30;;
75814;SDS011;70031;45.570;14.228;2023-09-30T08:42:40;13.05;;;9.63;;
75814;SDS011;70031;45.570;14.228;2023-09-30T08:44:41;17.80;;;9.75;;
75814;SDS011;70031;45.570;14.228;2023-09-30T08:46:41;16.38;;;9.20;;
75814;SDS011;70031;45.570;14.228;2023-09-30T08:48:42;13.70;;;9.02;;
75814;SDS011;70031;45.570;14.228;2023-09-30T08:50:43;16.73;;;9.73;;
75814;SDS011;70031;45.570;14.228;2023-09-30T08:52:44;13.38;;;9.35;;
75814;SDS011;70031;45.570;14.228;2023-09-30T08:54:45;15.13;;;8.80;;
75814;SDS011;70031;45.570;14.228;2023-09-30T08:56:47;13.55;;;8.60;;
75814;SDS011;70031;45.570;14.228;2023-09-30T08:58:49;14.77;;;8.95;;
75814;SDS011;70031;45.570;14.228;2023-09-30T09:00:50;10.10;;;6.75;;
75814;SDS011;70031;45.570;14.228;2023-09-30T09:02:50;11.00;;;7.18;;
75814;SDS011;70031;45.570;14.228;2023-09-30T09:04:51;13.88;;;8.85;;
75814;SDS011;70031;45.570;14.228;2023-09-30T09:06:55;12.48;;;7.63;;
75814;SDS011;70031;45.570;14.228;2023-09-30T09:09:17;12.55;;;7.57;;
75814;SDS011;70031;45.570;14.228;2023-09-30T09:11:19;12.45;;;6.50;;
75814;SDS011;70031;45.570;14.228;2023-09-30T09:13:19;11.50;;;7.50;;
75814;SDS011;70031;45.570;14.228;2023-09-30T09:15:21;10.63;;;7.15;;
75814;SDS011;70031;45.570;14.228;2023-09-30T09:17:23;13.15;;;6.30;;
75814;SDS011;70031;45.570;14.228;2023-09-30T09:19:23;9.93;;;6.40;;
75814;SDS011;70031;45.570;14.228;2023-09-30T09:21:23;14.23;;;6.80;;
75814;SDS011;70031;45.570;14.228;2023-09-30T09:25:26;9.90;;;6.17;;
75814;SDS011;70031;45.570;14.228;2023-09-30T09:27:27;9.00;;;5.80;;
75814;SDS011;70031;45.570;14.228;2023-09-30T09:29:27;15.88;;;6.38;;
75814;SDS011;70031;45.570;14.228;2023-09-30T09:31:28;10.93;;;5.90;;
75814;SDS011;70031;45.570;14.228;2023-09-30T09:33:35;8.10;;;5.70;;
75814;SDS011;70031;45.570;14.228;2023-09-30T09:35:37;10.03;;;5.10;;
75814;SDS011;70031;45.570;14.228;2023-09-30T09:37:37;7.78;;;5.57;;
75814;SDS011;70031;45.570;14.228;2023-09-30T09:39:37;9.20;;;6.25;;
75814;SDS011;70031;45.570;14.228;2023-09-30T09:41:50;9.68;;;5.53;;
75814;SDS011;70031;45.570;14.228;2023-09-30T09:43:51;11.35;;;5.43;;
75814;SDS011;70031;45.570;14.228;2023-09-30T09:45:52;8.60;;;5.82;;
75814;SDS011;70031;45.570;14.228;2023-09-30T09:47:55;10.73;;;5.40;;
75814;SDS011;70031;45.570;14.228;2023-09-30T09:49:56;9.02;;;5.60;;
75814;SDS011;70031;45.570;14.228;2023-09-30T09:51:57;8.45;;;5.57;;
75814;SDS011;70031;45.570;14.228;2023-09-30T09:54:00;13.13;;;6.90;;
75814;SDS011;70031;45.570;14.228;2023-09-30T09:56:03;17.30;;;7.22;;
75814;SDS011;70031;45.570;14.228;2023-09-30T09:58:05;13.25;;;6.63;;
75814;SDS011;70031;45.570;14.228;2023-09-30T10:00:07;10.57;;;6.00;;
75814;SDS011;70031;45.570;14.228;2023-09-30T10:02:14;12.18;;;5.43;;
75814;SDS011;70031;45.570;14.228;2023-09-30T10:04:15;9.55;;;5.22;;
75814;SDS011;70031;45.570;14.228;2023-09-30T10:06:17;12.18;;;5.50;;
75814;SDS011;70031;45.570;14.228;2023-09-30T10:08:17;8.52;;;5.93;;
75814;SDS011;70031;45.570;14.228;2023-09-30T10:10:23;9.65;;;5.47;;
75814;SDS011;70031;45.570;14.228;2023-09-30T10:12:24;10.00;;;4.70;;
75814;SDS011;70031;45.570;14.228;2023-09-30T10:14:32;10.95;;;4.97;;
75814;SDS011;70031;45.570;14.228;2023-09-30T10:19:02;10.82;;;4.30;;
75814;SDS011;70031;45.570;14.228;2023-09-30T10:21:12;7.50;;;3.90;;
75814;SDS011;70031;45.570;14.228;2023-09-30T10:25:35;6.88;;;4.05;;
75814;SDS011;70031;45.570;14.228;2023-09-30T10:27:36;5.93;;;3.55;;
75814;SDS011;70031;45.570;14.228;2023-09-30T10:29:40;6.53;;;3.30;;
75814;SDS011;70031;45.570;14.228;2023-09-30T10:31:53;4.35;;;2.88;;
75814;SDS011;70031;45.570;14.228;2023-09-30T10:36:03;8.52;;;2.65;;
75814;SDS011;70031;45.570;14.228;2023-09-30T10:40:27;4.18;;;2.53;;
75814;SDS011;70031;45.570;14.228;2023-09-30T10:42:44;6.93;;;2.50;;
75814;SDS011;70031;45.570;14.228;2023-09-30T10:44:52;6.43;;;2.90;;
75814;SDS011;70031;45.570;14.228;2023-09-30T10:46:52;6.80;;;3.10;;
75814;SDS011;70031;45.570;14.228;2023-09-30T10:48:54;5.50;;;2.72;;
75814;SDS011;70031;45.570;14.228;2023-09-30T10:51:01;6.40;;;2.90;;
75814;SDS011;70031;45.570;14.228;2023-09-30T10:53:10;11.15;;;2.95;;
75814;SDS011;70031;45.570;14.228;2023-09-30T10:55:11;8.20;;;2.78;;
75814;SDS011;70031;45.570;14.228;2023-09-30T10:57:11;6.72;;;2.80;;
75814;SDS011;70031;45.570;14.228;2023-09-30T10:59:17;10.25;;;3.42;;
75814;SDS011;70031;45.570;14.228;2023-09-30T11:01:31;6.00;;;2.70;;
75814;SDS011;70031;45.570;14.228;2023-09-30T11:03:36;4.88;;;3.00;;
75814;SDS011;70031;45.570;14.228;2023-09-30T11:05:37;7.90;;;2.78;;
75814;SDS011;70031;45.570;14.228;2023-09-30T11:07:38;6.03;;;3.10;;
75814;SDS011;70031;45.570;14.228;2023-09-30T11:09:39;4.87;;;2.80;;
75814;SDS011;70031;45.570;14.228;2023-09-30T11:11:42;7.07;;;3.22;;
75814;SDS011;70031;45.570;14.228;2023-09-30T11:13:44;7.85;;;2.95;;
75814;SDS011;70031;45.570;14.228;2023-09-30T11:15:45;5.82;;;3.13;;
75814;SDS011;70031;45.570;14.228;2023-09-30T11:17:46;3.63;;;2.65;;
75814;SDS011;70031;45.570;14.228;2023-09-30T11:19:46;5.05;;;2.60;;
75814;SDS011;70031;45.570;14.228;2023-09-30T11:21:52;8.23;;;2.85;;
75814;SDS011;70031;45.570;14.228;2023-09-30T11:24:01;5.78;;;2.92;;
75814;SDS011;70031;45.570;14.228;2023-09-30T11:26:02;6.85;;;2.80;;
75814;SDS011;70031;45.570;14.228;2023-09-30T11:28:12;4.75;;;2.65;;
75814;SDS011;70031;45.570;14.228;2023-09-30T11:30:22;6.10;;;2.80;;
75814;SDS011;70031;45.570;14.228;2023-09-30T11:32:25;7.30;;;3.08;;
75814;SDS011;70031;45.570;14.228;2023-09-30T11:34:33;6.18;;;2.70;;
75814;SDS011;70031;45.570;14.228;2023-09-30T11:36:36;8.13;;;3.20;;
75814;SDS011;70031;45.570;14.228;2023-09-30T11:38:43;12.07;;;3.47;;
75814;SDS011;70031;45.570;14.228;2023-09-30T11:40:57;5.72;;;2.40;;
75814;SDS011;70031;45.570;14.228;2023-09-30T11:43:08;7.68;;;2.65;;
75814;SDS011;70031;45.570;14.228;2023-09-30T11:45:18;9.90;;;2.97;;
75814;SDS011;70031;45.570;14.228;2023-09-30T11:47:29;8.27;;;2.83;;
75814;SDS011;70031;45.570;14.228;2023-09-30T11:49:37;7.38;;;3.28;;
75814;SDS011;70031;45.570;14.228;2023-09-30T11:51:42;7.80;;;2.85;;
75814;SDS011;70031;45.570;14.228;2023-09-30T11:53:46;5.78;;;2.90;;
75814;SDS011;70031;45.570;14.228;2023-09-30T11:55:47;6.90;;;2.70;;
75814;SDS011;70031;45.570;14.228;2023-09-30T11:57:47;6.57;;;3.03;;
75814;SDS011;70031;45.570;14.228;2023-09-30T11:59:47;7.53;;;2.83;;